createdAt,value
2018-01-13T00:00:45.585Z,4.50
2018-01-13T00:03:16.619Z,4.50
2018-01-13T00:05:44.802Z,4.50
2018-01-13T00:08:16.562Z,4.50
2018-01-13T00:10:45.261Z,4.60
2018-01-13T00:13:14.268Z,4.60
2018-01-13T00:15:43.622Z,4.60
2018-01-13T00:18:11.904Z,4.60
2018-01-13T00:20:40.976Z,4.60
2018-01-13T00:23:09.096Z,4.60
2018-01-13T00:25:38.049Z,4.60
2018-01-13T00:28:11.208Z,4.60
2018-01-13T00:33:23.025Z,4.70
2018-01-13T00:35:51.105Z,4.70
2018-01-13T00:38:19.425Z,4.70
2018-01-13T00:40:47.560Z,4.50
2018-01-13T00:43:15.774Z,4.50
2018-01-13T00:45:44.091Z,4.40
2018-01-13T00:48:12.985Z,4.60
2018-01-13T00:50:41.619Z,4.50
2018-01-13T00:53:09.762Z,4.70
2018-01-13T00:55:38.000Z,4.70
2018-01-13T00:58:07.293Z,4.70
2018-01-13T01:00:35.336Z,4.70
2018-01-13T01:03:03.606Z,4.70
2018-01-13T01:05:31.827Z,4.60
2018-01-13T01:08:00.754Z,4.70
2018-01-13T01:10:29.198Z,4.70
2018-01-13T01:12:58.568Z,4.70
2018-01-13T01:15:27.357Z,4.70
2018-01-13T01:17:55.743Z,4.60
2018-01-13T01:20:24.070Z,4.60
2018-01-13T01:22:52.425Z,4.60
2018-01-13T01:25:20.478Z,4.60
2018-01-13T01:27:50.905Z,4.50
2018-01-13T01:30:19.456Z,4.50
2018-01-13T01:32:47.684Z,4.50
2018-01-13T01:35:16.670Z,4.50
2018-01-13T01:37:45.713Z,4.40
2018-01-13T01:40:16.384Z,4.50
2018-01-13T01:42:45.143Z,4.40
2018-01-13T01:45:13.927Z,4.50
2018-01-13T01:47:47.871Z,4.40
2018-01-13T01:50:16.357Z,4.40
2018-01-13T01:52:45.146Z,4.30
2018-01-13T01:55:14.433Z,4.30
2018-01-13T01:57:42.424Z,4.30
2018-01-13T02:00:11.917Z,4.30
2018-01-13T02:02:40.199Z,4.20
2018-01-13T02:05:09.200Z,4.20
2018-01-13T02:07:37.350Z,4.10
2018-01-13T02:10:05.432Z,4.10
2018-01-13T02:12:44.142Z,4.10
2018-01-13T02:15:12.803Z,4.10
2018-01-13T02:17:41.132Z,4.10
2018-01-13T02:20:10.617Z,4.00
2018-01-13T02:22:38.640Z,4.00
2018-01-13T02:25:07.098Z,4.00
2018-01-13T02:27:35.690Z,4.00
2018-01-13T02:30:03.845Z,3.90
2018-01-13T02:32:33.547Z,3.80
2018-01-13T02:35:01.518Z,3.70
2018-01-13T02:37:29.546Z,3.70
2018-01-13T02:40:00.250Z,3.70
2018-01-13T02:42:28.208Z,3.70
2018-01-13T02:44:57.215Z,3.70
2018-01-13T02:47:25.269Z,3.60
2018-01-13T02:49:53.447Z,3.60
2018-01-13T02:52:21.735Z,3.50
2018-01-13T02:54:49.796Z,3.40
2018-01-13T02:57:18.418Z,3.40
2018-01-13T02:59:46.484Z,3.40
2018-01-13T03:02:14.468Z,3.30
2018-01-13T03:04:44.674Z,3.20
2018-01-13T03:07:13.003Z,3.20
2018-01-13T03:09:41.267Z,3.20
2018-01-13T03:12:09.529Z,3.10
2018-01-13T03:14:38.256Z,3.10
2018-01-13T03:17:06.395Z,3.00
2018-01-13T03:19:35.979Z,2.90
2018-01-13T03:22:04.466Z,2.90
2018-01-13T03:24:37.534Z,2.90
2018-01-13T03:27:06.344Z,2.80
2018-01-13T03:29:34.957Z,2.80
2018-01-13T03:32:02.975Z,2.80
2018-01-13T03:34:31.949Z,2.80
2018-01-13T03:37:03.289Z,2.90
2018-01-13T03:39:31.436Z,2.90
2018-01-13T03:41:59.676Z,2.90
2018-01-13T03:44:29.568Z,3.00
2018-01-13T03:46:57.673Z,2.90
2018-01-13T03:49:25.899Z,2.90
2018-01-13T03:51:54.005Z,3.00
2018-01-13T03:54:22.253Z,2.90
2018-01-13T03:56:50.794Z,2.90
2018-01-13T03:59:20.072Z,3.00
2018-01-13T04:01:48.183Z,3.00
2018-01-13T04:04:16.805Z,3.00
2018-01-13T04:06:45.126Z,2.90
2018-01-13T04:09:16.046Z,2.90
2018-01-13T04:11:44.000Z,2.80
2018-01-13T04:14:12.023Z,2.90
2018-01-13T04:16:40.880Z,2.70
2018-01-13T04:19:08.971Z,2.70
2018-01-13T04:21:39.428Z,2.70
2018-01-13T04:24:07.452Z,2.70
2018-01-13T04:26:36.055Z,2.70
2018-01-13T04:29:08.083Z,2.70
2018-01-13T04:31:36.653Z,2.60
2018-01-13T04:34:04.856Z,2.50
2018-01-13T04:36:35.237Z,2.50
2018-01-13T04:39:04.428Z,2.50
2018-01-13T04:41:33.370Z,2.30
2018-01-13T04:44:01.350Z,2.30
2018-01-13T04:46:29.357Z,2.40
2018-01-13T04:48:57.622Z,2.30
2018-01-13T04:51:31.860Z,2.40
2018-01-13T04:53:59.998Z,2.40
2018-01-13T04:56:30.610Z,2.30
2018-01-13T04:59:00.615Z,2.30
2018-01-13T05:01:28.725Z,2.30
2018-01-13T05:03:56.741Z,2.20
2018-01-13T05:06:25.032Z,2.10
2018-01-13T05:08:54.252Z,2.20
2018-01-13T05:11:22.458Z,2.10
2018-01-13T05:13:51.109Z,2.00
2018-01-13T05:16:20.097Z,2.00
2018-01-13T05:18:48.118Z,1.90
2018-01-13T05:21:24.235Z,1.90
2018-01-13T05:23:52.498Z,1.90
2018-01-13T05:26:21.874Z,1.90
2018-01-13T05:28:49.967Z,2.00
2018-01-13T05:31:18.163Z,1.90
2018-01-13T05:33:48.229Z,1.90
2018-01-13T05:36:16.289Z,1.90
2018-01-13T05:38:44.523Z,1.90
2018-01-13T05:41:12.745Z,2.00
2018-01-13T05:43:41.558Z,1.90
2018-01-13T05:46:09.885Z,1.80
2018-01-13T05:48:38.409Z,1.90
2018-01-13T05:51:06.804Z,1.80
2018-01-13T05:53:35.139Z,1.80
2018-01-13T05:56:04.295Z,1.90
2018-01-13T05:58:41.339Z,1.90
2018-01-13T06:01:15.541Z,1.70
2018-01-13T06:03:44.228Z,1.70
2018-01-13T06:06:14.191Z,1.60
2018-01-13T06:08:48.156Z,1.50
2018-01-13T06:11:21.694Z,1.50
2018-01-13T06:13:50.534Z,1.60
2018-01-13T06:16:18.719Z,1.60
2018-01-13T06:18:46.764Z,1.60
2018-01-13T06:21:14.909Z,1.60
2018-01-13T06:23:43.722Z,1.60
2018-01-13T06:26:11.783Z,1.60
2018-01-13T06:28:39.879Z,1.60
2018-01-13T06:31:07.894Z,1.70
2018-01-13T06:33:36.159Z,1.50
2018-01-13T06:36:04.281Z,1.50
2018-01-13T06:38:32.342Z,1.50
2018-01-13T06:41:00.490Z,1.40
2018-01-13T06:43:30.370Z,1.50
2018-01-13T06:46:01.463Z,1.50
2018-01-13T06:48:29.449Z,1.60
2018-01-13T06:50:59.018Z,1.50
2018-01-13T06:53:28.301Z,1.60
2018-01-13T06:55:56.682Z,1.40
2018-01-13T06:58:31.657Z,1.30
2018-01-13T07:01:01.058Z,1.20
2018-01-13T07:03:29.732Z,1.30
2018-01-13T07:05:58.835Z,1.30
2018-01-13T07:08:26.898Z,1.30
2018-01-13T07:10:55.008Z,1.20
2018-01-13T07:13:23.184Z,1.20
2018-01-13T07:15:51.298Z,1.20
2018-01-13T07:18:19.271Z,1.20
2018-01-13T07:20:47.257Z,1.40
2018-01-13T07:23:15.342Z,1.30
2018-01-13T07:25:47.722Z,1.40
2018-01-13T07:28:16.231Z,1.50
2018-01-13T07:30:44.719Z,1.20
2018-01-13T07:33:12.897Z,1.30
2018-01-13T07:35:41.052Z,1.40
2018-01-13T07:38:09.912Z,1.50
2018-01-13T07:40:38.004Z,1.40
2018-01-13T07:43:07.867Z,1.30
2018-01-13T07:45:36.314Z,1.30
2018-01-13T07:48:04.624Z,1.20
2018-01-13T07:50:32.883Z,1.10
2018-01-13T07:53:01.180Z,1.10
2018-01-13T07:55:29.399Z,1.00
2018-01-13T07:58:07.404Z,1.00
2018-01-13T08:00:35.458Z,1.00
2018-01-13T08:03:03.498Z,1.10
2018-01-13T08:05:34.003Z,1.20
2018-01-13T08:08:02.766Z,1.10
2018-01-13T08:10:31.588Z,1.20
2018-01-13T08:13:00.404Z,1.20
2018-01-13T08:15:28.767Z,1.30
2018-01-13T08:18:00.826Z,1.30
2018-01-13T08:20:31.246Z,1.50
2018-01-13T08:23:05.188Z,1.50
2018-01-13T08:25:39.959Z,1.60
2018-01-13T08:28:11.389Z,1.50
2018-01-13T08:30:46.787Z,1.60
2018-01-13T08:36:54.992Z,1.60
2018-01-13T08:39:38.792Z,1.50
2018-01-13T08:42:09.271Z,1.60
2018-01-13T08:44:38.395Z,1.70
2018-01-13T08:50:15.370Z,1.90
2018-01-13T08:52:43.654Z,1.90
2018-01-13T08:55:12.722Z,1.70
2018-01-13T08:57:41.755Z,1.70
2018-01-13T09:00:10.725Z,1.50
2018-01-13T09:02:39.306Z,1.50
2018-01-13T09:05:13.146Z,1.50
2018-01-13T09:07:41.749Z,1.50
2018-01-13T09:10:11.617Z,1.50
2018-01-13T09:12:40.344Z,1.60
2018-01-13T09:15:09.724Z,1.60
2018-01-13T09:17:39.740Z,1.70
2018-01-13T09:20:09.020Z,1.70
2018-01-13T09:22:38.334Z,1.60
2018-01-13T09:25:08.078Z,1.70
2018-01-13T09:27:36.613Z,1.70
2018-01-13T09:30:05.983Z,1.70
2018-01-13T09:32:35.412Z,1.80
2018-01-13T09:35:04.302Z,1.70
2018-01-13T09:37:34.523Z,1.90
2018-01-13T09:40:02.491Z,2.00
2018-01-13T09:42:31.911Z,1.90
2018-01-13T09:45:58.000Z,2.10
2018-01-13T09:48:26.094Z,2.10
2018-01-13T09:50:54.813Z,2.10
2018-01-13T09:53:23.235Z,1.90
2018-01-13T09:55:59.366Z,1.90
2018-01-13T09:58:29.169Z,1.90
2018-01-13T10:00:57.097Z,1.90
2018-01-13T10:03:26.878Z,2.10
2018-01-13T10:05:56.431Z,2.30
2018-01-13T10:08:28.736Z,2.30
2018-01-13T10:10:59.639Z,2.40
2018-01-13T10:13:27.837Z,2.30
2018-01-13T10:16:00.799Z,2.40
2018-01-13T10:18:29.903Z,2.50
2018-01-13T10:20:58.578Z,2.30
2018-01-13T10:23:27.620Z,2.30
2018-01-13T10:25:55.987Z,2.50
2018-01-13T10:28:23.973Z,2.70
2018-01-13T10:31:49.771Z,2.70
2018-01-13T10:34:17.782Z,2.80
2018-01-13T10:36:46.969Z,2.90
2018-01-13T10:39:15.837Z,2.70
2018-01-13T10:41:48.033Z,2.70
2018-01-13T10:44:16.052Z,2.70
2018-01-13T10:46:44.364Z,2.70
2018-01-13T10:52:34.133Z,2.90
2018-01-13T10:55:08.671Z,2.90
2018-01-13T10:57:37.940Z,2.90
2018-01-13T11:00:09.369Z,3.10
2018-01-13T11:02:38.928Z,3.10
2018-01-13T11:05:09.482Z,3.10
2018-01-13T11:07:39.818Z,3.10
2018-01-13T11:10:08.773Z,3.10
2018-01-13T11:12:46.759Z,3.10
2018-01-13T11:15:16.400Z,3.10
2018-01-13T11:17:45.933Z,3.10
2018-01-13T11:20:14.614Z,3.20
2018-01-13T11:22:52.228Z,3.10
2018-01-13T11:25:51.630Z,3.20
2018-01-13T11:28:20.763Z,3.10
2018-01-13T11:30:50.308Z,3.30
2018-01-13T11:33:18.440Z,3.20
2018-01-13T11:35:51.227Z,3.40
2018-01-13T11:38:23.633Z,3.40
2018-01-13T11:40:52.606Z,3.40
2018-01-13T11:43:24.792Z,3.60
2018-01-13T11:45:53.686Z,3.50
2018-01-13T11:48:21.644Z,3.60
2018-01-13T11:50:50.316Z,3.80
2018-01-13T11:53:19.069Z,3.80
2018-01-13T11:55:47.480Z,3.80
2018-01-13T11:58:16.671Z,3.80
2018-01-13T12:00:47.811Z,3.90
2018-01-13T12:03:33.517Z,3.90
2018-01-13T12:06:02.186Z,3.90
2018-01-13T12:08:31.734Z,3.60
2018-01-13T12:10:59.780Z,3.70
2018-01-13T12:13:29.445Z,3.80
2018-01-13T12:16:00.865Z,3.90
2018-01-13T12:18:34.104Z,3.90
2018-01-13T12:21:03.616Z,3.90
2018-01-13T12:27:35.372Z,3.70
2018-01-13T12:30:05.903Z,3.80
2018-01-13T12:32:37.853Z,3.90
2018-01-13T12:35:13.832Z,4.00
2018-01-13T12:37:44.443Z,4.10
2018-01-13T12:40:12.891Z,4.10
2018-01-13T12:42:43.053Z,4.00
2018-01-13T12:45:13.086Z,4.00
2018-01-13T12:47:47.073Z,4.10
2018-01-13T12:50:18.213Z,4.00
2018-01-13T12:52:48.759Z,4.10
2018-01-13T12:55:19.267Z,4.20
2018-01-13T12:57:49.558Z,4.30
2018-01-13T13:00:29.629Z,4.30
2018-01-13T13:02:58.542Z,4.30
2018-01-13T13:05:35.241Z,4.30
2018-01-13T13:08:14.321Z,4.20
2018-01-13T13:10:42.575Z,4.20
2018-01-13T13:13:10.694Z,4.20
2018-01-13T13:15:44.614Z,4.40
2018-01-13T13:18:12.718Z,4.40
2018-01-13T13:20:41.526Z,4.40
2018-01-13T13:23:11.105Z,4.40
2018-01-13T13:25:39.391Z,4.30
2018-01-13T13:28:12.189Z,4.30
2018-01-13T13:30:43.888Z,4.40
2018-01-13T13:33:49.019Z,4.40
2018-01-13T13:36:17.148Z,4.40
2018-01-13T13:38:47.701Z,4.40
2018-01-13T13:41:25.221Z,4.40
2018-01-13T13:43:53.384Z,4.40
2018-01-13T13:46:21.362Z,4.50
2018-01-13T13:48:49.863Z,4.60
2018-01-13T13:51:18.020Z,4.60
2018-01-13T13:53:47.338Z,4.70
2018-01-13T13:56:16.522Z,4.70
2018-01-13T13:58:48.393Z,4.80
2018-01-13T14:01:28.507Z,4.70
2018-01-13T14:04:23.543Z,4.70
2018-01-13T14:06:52.476Z,4.70
2018-01-13T14:09:29.803Z,4.70
2018-01-13T14:11:58.741Z,4.70
2018-01-13T14:14:27.551Z,4.70
2018-01-13T14:16:56.681Z,4.70
2018-01-13T14:19:25.172Z,4.60
2018-01-13T14:21:54.302Z,4.60
2018-01-13T14:24:26.182Z,4.60
2018-01-13T14:26:55.208Z,4.60
2018-01-13T14:29:23.495Z,4.60
2018-01-13T14:31:52.675Z,4.60
2018-01-13T14:34:21.823Z,4.60
2018-01-13T14:36:50.780Z,4.50
2018-01-13T14:39:19.756Z,4.60
2018-01-13T14:41:47.796Z,4.50
2018-01-13T14:44:19.937Z,4.50
2018-01-13T14:46:47.946Z,4.50
2018-01-13T14:49:16.164Z,4.50
2018-01-13T14:51:44.688Z,4.50
2018-01-13T14:54:18.388Z,4.50
2018-01-13T14:56:48.511Z,4.50
2018-01-13T14:59:16.810Z,4.40
2018-01-13T15:01:45.645Z,4.40
2018-01-13T15:04:14.125Z,4.40
2018-01-13T15:06:42.413Z,4.50
2018-01-13T15:09:12.556Z,4.40
2018-01-13T15:11:41.028Z,4.50
2018-01-13T15:14:09.441Z,4.50
2018-01-13T15:20:08.267Z,4.50
2018-01-13T15:22:36.487Z,4.40
2018-01-13T15:25:04.860Z,4.40
2018-01-13T15:27:36.363Z,4.50
2018-01-13T15:30:06.415Z,4.50
2018-01-13T15:32:34.457Z,4.50
2018-01-13T15:35:02.569Z,4.40
2018-01-13T15:37:33.098Z,4.40
2018-01-13T15:40:01.386Z,4.40
2018-01-13T15:42:29.635Z,4.40
2018-01-13T15:44:59.126Z,4.40
2018-01-13T15:47:29.144Z,4.50
2018-01-13T15:49:57.680Z,4.40
2018-01-13T15:52:33.274Z,4.40
2018-01-13T15:55:03.929Z,4.40
2018-01-13T15:57:46.704Z,4.30
2018-01-13T16:00:15.739Z,4.40
2018-01-13T16:02:57.275Z,4.40
2018-01-13T16:05:32.409Z,4.30
2018-01-13T16:08:14.968Z,4.30
2018-01-13T16:10:43.792Z,4.30
2018-01-13T16:13:12.159Z,4.40
2018-01-13T16:15:40.256Z,4.30
2018-01-13T16:18:09.794Z,4.30
2018-01-13T16:20:42.931Z,4.20
2018-01-13T16:23:11.904Z,4.20
2018-01-13T16:25:55.725Z,4.20
2018-01-13T16:28:25.191Z,4.20
2018-01-13T16:31:03.264Z,4.10
2018-01-13T16:33:35.052Z,4.10
2018-01-13T16:36:07.120Z,4.10
2018-01-13T16:38:35.507Z,4.10
2018-01-13T16:41:05.603Z,4.20
2018-01-13T16:43:35.065Z,4.20
2018-01-13T16:46:04.935Z,4.10
2018-01-13T16:48:33.238Z,4.10
2018-01-13T16:51:02.835Z,4.10
2018-01-13T16:53:32.450Z,4.10
2018-01-13T16:56:13.733Z,4.10
2018-01-13T16:58:41.768Z,4.10
2018-01-13T17:01:12.743Z,4.10
2018-01-13T17:03:42.783Z,4.10
2018-01-13T17:06:14.499Z,4.10
2018-01-13T17:08:48.181Z,4.10
2018-01-13T17:11:18.149Z,4.10
2018-01-13T17:13:46.648Z,4.00
2018-01-13T17:16:15.411Z,3.90
2018-01-13T17:18:44.398Z,3.90
2018-01-13T17:21:12.642Z,3.90
2018-01-13T17:23:41.181Z,3.80
2018-01-13T17:26:09.137Z,3.90
2018-01-13T17:28:39.935Z,3.90
2018-01-13T17:31:07.885Z,3.80
2018-01-13T17:33:36.227Z,3.80
2018-01-13T17:36:04.751Z,3.80
2018-01-13T17:38:33.634Z,3.80
2018-01-13T17:41:02.577Z,3.80
2018-01-13T17:43:32.412Z,3.80
2018-01-13T17:46:00.552Z,3.80
2018-01-13T17:48:33.763Z,3.80
2018-01-13T17:51:01.928Z,3.70
2018-01-13T17:53:45.180Z,3.70
2018-01-13T17:56:21.531Z,3.80
2018-01-13T17:58:56.725Z,3.70
2018-01-13T18:01:44.375Z,3.80
2018-01-13T18:04:37.181Z,3.80
2018-01-13T18:07:05.553Z,3.80
2018-01-13T18:09:36.310Z,3.70
2018-01-13T18:12:04.538Z,3.70
2018-01-13T18:14:32.694Z,3.80
2018-01-13T18:17:01.552Z,3.70
2018-01-13T18:19:31.834Z,3.70
2018-01-13T18:22:00.227Z,3.70
2018-01-13T18:24:28.277Z,3.70
2018-01-13T18:33:39.914Z,3.60
2018-01-13T18:36:08.211Z,3.60
2018-01-13T18:38:36.879Z,3.60
2018-01-13T18:41:09.230Z,3.60
2018-01-13T18:43:39.547Z,3.60
2018-01-13T18:46:13.761Z,3.60
2018-01-13T18:48:49.934Z,3.50
2018-01-13T18:51:20.109Z,3.60
2018-01-13T18:53:50.072Z,3.50
2018-01-13T18:56:20.142Z,3.50
2018-01-13T18:58:49.101Z,3.50
2018-01-13T19:01:18.599Z,3.50
2018-01-13T19:03:47.116Z,3.50
2018-01-13T19:06:17.417Z,3.50
2018-01-13T19:08:45.428Z,3.50
2018-01-13T19:11:13.462Z,3.50
2018-01-13T19:13:43.216Z,3.50
2018-01-13T19:16:11.319Z,3.50
2018-01-13T19:18:46.380Z,3.50
2018-01-13T19:21:18.184Z,3.50
2018-01-13T19:23:47.227Z,3.50
2018-01-13T19:26:16.556Z,3.50
2018-01-13T19:29:30.592Z,3.50
2018-01-13T19:31:58.761Z,3.50
2018-01-13T19:34:27.233Z,3.50
2018-01-13T19:36:56.077Z,3.50
2018-01-13T19:39:26.390Z,3.40
2018-01-13T19:41:54.547Z,3.40
2018-01-13T19:44:23.553Z,3.50
2018-01-13T19:46:56.931Z,3.50
2018-01-13T19:49:29.360Z,3.50
2018-01-13T19:51:58.845Z,3.50
2018-01-13T19:54:27.013Z,3.50
2018-01-13T19:56:55.477Z,3.40
2018-01-13T19:59:24.134Z,3.40
2018-01-13T20:01:57.091Z,3.40
2018-01-13T20:04:25.138Z,3.40
2018-01-13T20:06:53.524Z,3.30
2018-01-13T20:09:22.669Z,3.30
2018-01-13T20:11:52.137Z,3.30
2018-01-13T20:14:20.655Z,3.20
2018-01-13T20:16:50.945Z,3.30
2018-01-13T20:19:22.877Z,3.20
2018-01-13T20:21:54.182Z,3.30
2018-01-13T20:24:26.037Z,3.30
2018-01-13T20:26:56.022Z,3.10
2018-01-13T20:29:24.634Z,3.10
2018-01-13T20:31:53.351Z,3.20
2018-01-13T20:34:22.909Z,3.20
2018-01-13T20:36:52.302Z,3.10
2018-01-13T20:39:20.745Z,3.10
2018-01-13T20:41:50.427Z,3.10
2018-01-13T20:44:21.819Z,3.00
2018-01-13T20:46:53.988Z,3.00
2018-01-13T20:49:23.596Z,2.90
2018-01-13T20:51:57.375Z,2.90
2018-01-13T20:54:30.898Z,3.00
2018-01-13T20:57:01.991Z,2.90
2018-01-13T20:59:31.202Z,2.90
2018-01-13T21:02:00.566Z,2.90
2018-01-13T21:04:31.148Z,2.90
2018-01-13T21:07:01.157Z,2.90
2018-01-13T21:09:31.329Z,3.00
2018-01-13T21:12:00.272Z,2.90
2018-01-13T21:14:30.152Z,2.90
2018-01-13T21:16:58.555Z,2.70
2018-01-13T21:19:26.900Z,2.70
2018-01-13T21:21:55.346Z,2.70
2018-01-13T21:24:24.372Z,2.60
2018-01-13T21:26:52.429Z,2.50
2018-01-13T21:29:20.558Z,2.50
2018-01-13T21:31:49.196Z,2.50
2018-01-13T21:34:22.056Z,2.50
2018-01-13T21:36:56.892Z,2.50
2018-01-13T21:39:24.897Z,2.50
2018-01-13T21:41:57.135Z,2.50
2018-01-13T21:44:25.995Z,2.50
2018-01-13T21:47:03.066Z,2.50
2018-01-13T21:49:33.218Z,2.50
2018-01-13T21:52:02.451Z,2.50
2018-01-13T21:54:35.530Z,2.60
2018-01-13T21:57:04.444Z,2.40
2018-01-13T21:59:40.388Z,2.40
2018-01-13T22:02:22.770Z,2.40
2018-01-13T22:04:53.171Z,2.30
2018-01-13T22:07:27.154Z,2.30
2018-01-13T22:12:35.359Z,2.30
2018-01-13T22:15:03.833Z,2.30
2018-01-13T22:17:36.049Z,2.20
2018-01-13T22:20:04.377Z,2.40
2018-01-13T22:22:35.404Z,2.30
2018-01-13T22:25:06.017Z,2.30
2018-01-13T22:27:35.882Z,2.30
2018-01-13T22:30:04.385Z,2.30
2018-01-13T22:32:33.966Z,2.30
2018-01-13T22:35:06.644Z,2.30
2018-01-13T22:37:38.609Z,2.10
2018-01-13T22:40:09.562Z,2.10
2018-01-13T22:42:39.577Z,2.10
2018-01-13T22:45:09.033Z,2.00
2018-01-13T22:47:39.250Z,2.00
2018-01-13T22:50:07.696Z,2.00
2018-01-13T22:52:43.820Z,2.00
2018-01-13T22:55:12.772Z,1.90
2018-01-13T22:57:41.906Z,1.90
2018-01-13T23:00:15.111Z,1.90
2018-01-13T23:02:50.681Z,1.90
2018-01-13T23:05:19.139Z,1.90
2018-01-13T23:07:49.802Z,1.90
2018-01-13T23:10:18.209Z,1.90
2018-01-13T23:12:52.402Z,1.80
2018-01-13T23:15:21.663Z,1.80
2018-01-13T23:17:56.524Z,1.80
2018-01-13T23:20:25.013Z,1.80
2018-01-13T23:22:53.158Z,1.80
2018-01-13T23:25:24.329Z,1.70
2018-01-13T23:28:08.548Z,1.70
2018-01-13T23:30:40.220Z,1.80
2018-01-13T23:33:08.451Z,1.70
2018-01-13T23:35:40.086Z,1.80
2018-01-13T23:38:13.997Z,1.70
2018-01-13T23:40:47.108Z,1.70
2018-01-13T23:43:18.605Z,1.70
2018-01-13T23:45:46.771Z,1.70
2018-01-13T23:48:15.181Z,1.80
2018-01-13T23:50:43.218Z,1.70
2018-01-13T23:53:11.417Z,1.70
2018-01-13T23:55:48.782Z,1.60
2018-01-13T23:58:57.709Z,1.50
